Suttons Bay, MI

12:49 PM EDT on April 28, 2015 (GMT -0400)
South Shore Drive | | Change Station
CLOSE
Current Station
Personal Weather Station
Location: Suttons Bay, MI
Elevation: 597 ft
Nearby Weather Stations

Elev 597 ft 44.97 °N, 85.64 °W | Updated 5 seconds ago

Overcast
Overcast
41.8 °F
Feels Like 42 °F
N
0.0
Wind Variable Wind from WNW
Gusts 8.0 mph

Today
High -- | Low -- °F
--% Chance of Precip.
Yesterday
High -- | Low -- °F
Precip. -- in
6:36 AM 8:44 PM
Waxing Gibbous, 75% visible
Pressure 30.16 in
Visibility 10.0 miles
Clouds Mostly Cloudy 3900 ft
Windchill 42 °F
Dew Point 38 °F
Humidity 85%
Rainfall 0.00 in
Snow Depth Not available.
UV 4 out of 12
Pollen 10.00 out of 12
Air Quality Not available.
Flu Activity Regional
METAR KTVC 281553Z 04007KT 10SM BKN039 10/02 A3014 RMK AO2 SLP211 T01000017

More Conditions Fewer Conditions

Pressure 30.16 in
Visibility 10.0 miles
Clouds Mostly Cloudy 3900 ft
Windchill 42 °F
Dew Point 38 °F
Humidity 85%
Rainfall 0.00 in
Snow Depth Not available.
UV 4 out of 12
Pollen 10.00 out of 12
Air Quality Not available.
Flu Activity Regional
METAR KTVC 281553Z 04007KT 10SM BKN039 10/02 A3014 RMK AO2 SLP211 T01000017

More Conditions Fewer Conditions

Nowcast | as of 12:00 PM EDT on April 28, 2015

At 1 PM...partly cloudy. Temperature 43. North winds 5 mph. At 3 PM...mostly clear. Temperature 45. North winds 6 mph. At 5 PM...mostly clear. Temperature 47. Northwest winds 6 mph. At 7 PM...mostly clear. Temperature 46. Light winds.

×

10-Day Weather Forecast

Almanac

Astronomy

Apr. 28, 2015 Rise Set
Actual Time
Civil Twilight
Nautical Twilight
Astronomical Twilight
Moon
Length of Visible Light
Length of Day
Tomorrow will be .
, % of the Moon is Illuminated

Today's Extremes

State Highs State Lows

Community

WunderPhotos

Upload Photos

1,817,699 photos uploaded!

WunderBlogs® & News

Nearby

Air Quality

  Air Quality AQ Index Pollutant
Not available.

Snow Depth

Station Depth Elevation

Earthquake Activity

City Distance Mag. Time & Date
Minimum magnitude displayed is 2.5.

Coastal Water Temperatures

Place Temperature

Stations

Nearby Weather Stations

Station Location Temp. Windchill Dew Point Humidity Wind Precip. Elev Updated Type